sensor_id;sensor_type;location;lat;lon;timestamp;pressure;altitude;pressure_sealevel;temperature;humidity
76594;BME280;65482;50.240;14.302;2024-03-29T00:02:13;98268.97;;;6.03;61.75
76594;BME280;65482;50.240;14.302;2024-03-29T00:04:39;98272.06;;;5.98;62.36
76594;BME280;65482;50.240;14.302;2024-03-29T00:07:04;98276.16;;;6.01;61.77
76594;BME280;65482;50.240;14.302;2024-03-29T00:09:30;98270.09;;;6.00;61.77
76594;BME280;65482;50.240;14.302;2024-03-29T00:11:55;98287.94;;;5.96;61.91
76594;BME280;65482;50.240;14.302;2024-03-29T00:14:21;98289.03;;;5.94;62.47
76594;BME280;65482;50.240;14.302;2024-03-29T00:16:46;98294.28;;;5.94;61.66
76594;BME280;65482;50.240;14.302;2024-03-29T00:19:12;98286.91;;;5.89;62.27
76594;BME280;65482;50.240;14.302;2024-03-29T00:21:37;98295.06;;;5.86;62.37
76594;BME280;65482;50.240;14.302;2024-03-29T00:24:03;98299.16;;;5.81;62.73
76594;BME280;65482;50.240;14.302;2024-03-29T00:26:29;98291.28;;;5.81;62.64
76594;BME280;65482;50.240;14.302;2024-03-29T00:28:54;98295.06;;;5.78;62.38
76594;BME280;65482;50.240;14.302;2024-03-29T00:31:21;98298.00;;;5.75;62.26
76594;BME280;65482;50.240;14.302;2024-03-29T00:33:46;98306.16;;;5.72;62.71
76594;BME280;65482;50.240;14.302;2024-03-29T00:36:12;98298.81;;;5.67;62.73
76594;BME280;65482;50.240;14.302;2024-03-29T00:38:37;98303.38;;;5.65;63.16
76594;BME280;65482;50.240;14.302;2024-03-29T00:41:03;98315.13;;;5.61;64.06
76594;BME280;65482;50.240;14.302;2024-03-29T00:43:28;98307.09;;;5.54;63.48
76594;BME280;65482;50.240;14.302;2024-03-29T00:45:54;98316.06;;;5.52;63.27
76594;BME280;65482;50.240;14.302;2024-03-29T00:48:19;98322.91;;;5.45;63.60
76594;BME280;65482;50.240;14.302;2024-03-29T00:50:46;98337.78;;;5.44;63.27
76594;BME280;65482;50.240;14.302;2024-03-29T00:53:11;98329.13;;;5.44;63.26
76594;BME280;65482;50.240;14.302;2024-03-29T00:55:37;98328.09;;;5.36;63.49
76594;BME280;65482;50.240;14.302;2024-03-29T00:58:03;98327.44;;;5.34;64.09
76594;BME280;65482;50.240;14.302;2024-03-29T01:00:28;98320.72;;;5.32;63.95
76594;BME280;65482;50.240;14.302;2024-03-29T01:02:55;98329.03;;;5.27;64.02
76594;BME280;65482;50.240;14.302;2024-03-29T01:05:20;98326.88;;;5.23;64.42
76594;BME280;65482;50.240;14.302;2024-03-29T01:07:46;98329.81;;;5.20;64.59
76594;BME280;65482;50.240;14.302;2024-03-29T01:10:12;98330.94;;;5.17;64.46
76594;BME280;65482;50.240;14.302;2024-03-29T01:12:37;98337.63;;;5.11;65.07
76594;BME280;65482;50.240;14.302;2024-03-29T01:15:05;98328.59;;;5.06;65.18
76594;BME280;65482;50.240;14.302;2024-03-29T01:17:31;98323.81;;;5.01;65.17
76594;BME280;65482;50.240;14.302;2024-03-29T01:19:57;98327.38;;;4.92;65.41
76594;BME280;65482;50.240;14.302;2024-03-29T01:22:22;98328.66;;;4.88;66.51
76594;BME280;65482;50.240;14.302;2024-03-29T01:24:48;98327.38;;;4.92;65.86
76594;BME280;65482;50.240;14.302;2024-03-29T01:27:13;98333.03;;;4.87;65.95
76594;BME280;65482;50.240;14.302;2024-03-29T01:29:39;98326.19;;;4.86;65.56
76594;BME280;65482;50.240;14.302;2024-03-29T01:32:05;98334.63;;;4.80;65.38
76594;BME280;65482;50.240;14.302;2024-03-29T01:34:31;98347.03;;;4.78;65.64
76594;BME280;65482;50.240;14.302;2024-03-29T01:36:57;98336.88;;;4.75;65.87
76594;BME280;65482;50.240;14.302;2024-03-29T01:39:23;98342.41;;;4.72;65.53
76594;BME280;65482;50.240;14.302;2024-03-29T01:41:54;98349.88;;;4.67;65.98
76594;BME280;65482;50.240;14.302;2024-03-29T01:44:20;98350.31;;;4.62;66.40
76594;BME280;65482;50.240;14.302;2024-03-29T01:46:46;98355.03;;;4.58;66.90
76594;BME280;65482;50.240;14.302;2024-03-29T01:49:13;98350.56;;;4.51;66.30
76594;BME280;65482;50.240;14.302;2024-03-29T01:51:39;98348.09;;;4.49;66.46
76594;BME280;65482;50.240;14.302;2024-03-29T01:54:06;98351.63;;;4.40;66.75
76594;BME280;65482;50.240;14.302;2024-03-29T01:56:32;98346.81;;;4.35;67.11
76594;BME280;65482;50.240;14.302;2024-03-29T01:58:58;98344.53;;;4.32;66.90
76594;BME280;65482;50.240;14.302;2024-03-29T02:01:26;98358.69;;;4.30;66.99
76594;BME280;65482;50.240;14.302;2024-03-29T02:03:52;98355.47;;;4.18;67.49
76594;BME280;65482;50.240;14.302;2024-03-29T02:06:18;98359.06;;;4.17;67.11
76594;BME280;65482;50.240;14.302;2024-03-29T02:08:44;98363.69;;;4.23;67.55
76594;BME280;65482;50.240;14.302;2024-03-29T02:11:09;98362.56;;;4.26;67.47
76594;BME280;65482;50.240;14.302;2024-03-29T02:13:35;98366.81;;;4.27;66.81
76594;BME280;65482;50.240;14.302;2024-03-29T02:16:02;98363.31;;;4.18;67.17
76594;BME280;65482;50.240;14.302;2024-03-29T02:18:28;98374.34;;;4.12;67.14
76594;BME280;65482;50.240;14.302;2024-03-29T02:20:53;98363.66;;;4.05;67.42
76594;BME280;65482;50.240;14.302;2024-03-29T02:23:25;98372.88;;;3.99;67.47
76594;BME280;65482;50.240;14.302;2024-03-29T02:25:51;98361.94;;;3.96;67.07
76594;BME280;65482;50.240;14.302;2024-03-29T02:28:17;98372.00;;;3.91;67.17
76594;BME280;65482;50.240;14.302;2024-03-29T02:30:43;98360.47;;;3.84;67.31
76594;BME280;65482;50.240;14.302;2024-03-29T02:33:08;98370.41;;;3.80;67.50
76594;BME280;65482;50.240;14.302;2024-03-29T02:35:34;98366.72;;;3.73;67.93
76594;BME280;65482;50.240;14.302;2024-03-29T02:37:59;98369.09;;;3.66;68.22
76594;BME280;65482;50.240;14.302;2024-03-29T02:40:25;98366.22;;;3.59;68.11
76594;BME280;65482;50.240;14.302;2024-03-29T02:42:50;98358.84;;;3.55;68.39
76594;BME280;65482;50.240;14.302;2024-03-29T02:45:16;98355.56;;;3.53;68.66
76594;BME280;65482;50.240;14.302;2024-03-29T02:47:42;98352.41;;;3.49;69.11
76594;BME280;65482;50.240;14.302;2024-03-29T02:50:09;98346.97;;;3.43;69.43
76594;BME280;65482;50.240;14.302;2024-03-29T02:52:36;98357.41;;;3.43;69.82
76594;BME280;65482;50.240;14.302;2024-03-29T02:55:01;98360.13;;;3.41;69.50
76594;BME280;65482;50.240;14.302;2024-03-29T02:57:28;98367.16;;;3.41;69.96
76594;BME280;65482;50.240;14.302;2024-03-29T02:59:53;98372.34;;;3.41;69.85
76594;BME280;65482;50.240;14.302;2024-03-29T03:02:19;98377.84;;;3.37;69.92
76594;BME280;65482;50.240;14.302;2024-03-29T03:04:45;98385.13;;;3.34;69.82
76594;BME280;65482;50.240;14.302;2024-03-29T03:07:10;98370.91;;;3.28;69.77
76594;BME280;65482;50.240;14.302;2024-03-29T03:09:54;98387.75;;;3.24;69.74
76594;BME280;65482;50.240;14.302;2024-03-29T03:12:38;98396.69;;;3.22;70.12
76594;BME280;65482;50.240;14.302;2024-03-29T03:15:04;98394.50;;;3.17;70.44
76594;BME280;65482;50.240;14.302;2024-03-29T03:17:30;98402.59;;;3.14;70.21
76594;BME280;65482;50.240;14.302;2024-03-29T03:19:57;98391.78;;;3.09;70.15
76594;BME280;65482;50.240;14.302;2024-03-29T03:22:22;98386.03;;;3.05;70.14
76594;BME280;65482;50.240;14.302;2024-03-29T03:24:48;98393.44;;;3.00;70.69
76594;BME280;65482;50.240;14.302;2024-03-29T03:27:13;98394.41;;;2.99;71.11
76594;BME280;65482;50.240;14.302;2024-03-29T03:29:39;98389.06;;;3.01;71.17
76594;BME280;65482;50.240;14.302;2024-03-29T03:32:05;98394.09;;;3.02;71.04
76594;BME280;65482;50.240;14.302;2024-03-29T03:34:32;98391.09;;;3.07;71.51
76594;BME280;65482;50.240;14.302;2024-03-29T03:36:57;98379.44;;;3.11;71.68
76594;BME280;65482;50.240;14.302;2024-03-29T03:39:23;98372.84;;;3.16;71.69
76594;BME280;65482;50.240;14.302;2024-03-29T03:41:48;98373.38;;;3.20;71.68
76594;BME280;65482;50.240;14.302;2024-03-29T03:44:16;98376.13;;;3.18;71.34
76594;BME280;65482;50.240;14.302;2024-03-29T03:46:41;98364.06;;;3.17;71.19
76594;BME280;65482;50.240;14.302;2024-03-29T03:49:07;98359.66;;;3.18;71.10
76594;BME280;65482;50.240;14.302;2024-03-29T03:51:32;98345.25;;;3.14;70.85
76594;BME280;65482;50.240;14.302;2024-03-29T03:53:58;98332.81;;;3.08;70.77
76594;BME280;65482;50.240;14.302;2024-03-29T03:56:23;98355.03;;;3.02;70.70
76594;BME280;65482;50.240;14.302;2024-03-29T03:58:49;98371.78;;;2.99;70.65
76594;BME280;65482;50.240;14.302;2024-03-29T04:01:14;98369.16;;;2.99;70.97
76594;BME280;65482;50.240;14.302;2024-03-29T04:03:40;98371.78;;;2.99;71.20
76594;BME280;65482;50.240;14.302;2024-03-29T04:06:06;98365.31;;;3.04;70.78
76594;BME280;65482;50.240;14.302;2024-03-29T04:08:32;98360.09;;;3.04;70.86
76594;BME280;65482;50.240;14.302;2024-03-29T04:11:02;98359.97;;;3.05;70.89
76594;BME280;65482;50.240;14.302;2024-03-29T04:13:28;98366.69;;;3.08;70.77
76594;BME280;65482;50.240;14.302;2024-03-29T04:15:53;98351.59;;;3.11;71.07
76594;BME280;65482;50.240;14.302;2024-03-29T04:18:26;98354.97;;;3.22;70.89
76594;BME280;65482;50.240;14.302;2024-03-29T04:20:58;98347.97;;;3.22;70.49
76594;BME280;65482;50.240;14.302;2024-03-29T04:23:24;98335.94;;;3.21;70.53
76594;BME280;65482;50.240;14.302;2024-03-29T04:25:53;98334.13;;;3.22;70.13
76594;BME280;65482;50.240;14.302;2024-03-29T04:28:20;98350.75;;;3.21;70.26
76594;BME280;65482;50.240;14.302;2024-03-29T04:30:56;98347.75;;;3.15;69.92
76594;BME280;65482;50.240;14.302;2024-03-29T04:33:23;98345.69;;;3.19;70.17
76594;BME280;65482;50.240;14.302;2024-03-29T04:35:56;98356.78;;;3.21;70.16
76594;BME280;65482;50.240;14.302;2024-03-29T04:38:23;98348.97;;;3.21;70.93
76594;BME280;65482;50.240;14.302;2024-03-29T04:40:50;98340.72;;;3.26;70.35
76594;BME280;65482;50.240;14.302;2024-03-29T04:43:16;98326.28;;;3.31;70.51
76594;BME280;65482;50.240;14.302;2024-03-29T04:45:43;98317.22;;;3.35;70.69
76594;BME280;65482;50.240;14.302;2024-03-29T04:48:10;98340.09;;;3.42;70.51
76594;BME280;65482;50.240;14.302;2024-03-29T04:50:35;98349.84;;;3.39;70.41
76594;BME280;65482;50.240;14.302;2024-03-29T04:53:01;98358.63;;;3.48;70.31
76594;BME280;65482;50.240;14.302;2024-03-29T04:55:27;98362.41;;;3.54;70.40
76594;BME280;65482;50.240;14.302;2024-03-29T04:57:53;98367.34;;;3.57;69.85
76594;BME280;65482;50.240;14.302;2024-03-29T05:00:19;98362.22;;;3.65;69.64
76594;BME280;65482;50.240;14.302;2024-03-29T05:02:45;98371.13;;;3.72;69.02
76594;BME280;65482;50.240;14.302;2024-03-29T05:05:10;98390.44;;;3.79;68.97
76594;BME280;65482;50.240;14.302;2024-03-29T05:07:36;98385.97;;;3.90;69.02
76594;BME280;65482;50.240;14.302;2024-03-29T05:10:01;98388.19;;;3.94;68.90
76594;BME280;65482;50.240;14.302;2024-03-29T05:12:32;98378.59;;;4.13;68.45
76594;BME280;65482;50.240;14.302;2024-03-29T05:14:58;98370.09;;;4.29;68.16
76594;BME280;65482;50.240;14.302;2024-03-29T05:17:24;98368.63;;;4.44;67.69
76594;BME280;65482;50.240;14.302;2024-03-29T05:19:55;98361.00;;;4.51;67.34
76594;BME280;65482;50.240;14.302;2024-03-29T05:22:22;98362.41;;;4.63;66.82
76594;BME280;65482;50.240;14.302;2024-03-29T05:24:47;98365.47;;;4.76;66.38
76594;BME280;65482;50.240;14.302;2024-03-29T05:27:13;98357.69;;;4.85;66.25
76594;BME280;65482;50.240;14.302;2024-03-29T05:29:39;98367.56;;;4.99;65.77
76594;BME280;65482;50.240;14.302;2024-03-29T05:32:06;98356.72;;;5.12;65.16
76594;BME280;65482;50.240;14.302;2024-03-29T05:34:31;98349.75;;;5.21;64.49
76594;BME280;65482;50.240;14.302;2024-03-29T05:36:57;98358.97;;;5.33;64.66
76594;BME280;65482;50.240;14.302;2024-03-29T05:39:23;98359.34;;;5.46;64.86
76594;BME280;65482;50.240;14.302;2024-03-29T05:41:48;98364.97;;;5.51;63.82
76594;BME280;65482;50.240;14.302;2024-03-29T05:44:14;98358.25;;;5.57;62.92
76594;BME280;65482;50.240;14.302;2024-03-29T05:46:40;98364.03;;;5.69;62.32
76594;BME280;65482;50.240;14.302;2024-03-29T05:49:06;98356.53;;;5.74;61.71
76594;BME280;65482;50.240;14.302;2024-03-29T05:51:32;98361.28;;;5.78;62.04
76594;BME280;65482;50.240;14.302;2024-03-29T05:54:01;98363.31;;;5.93;61.34
76594;BME280;65482;50.240;14.302;2024-03-29T05:56:29;98371.88;;;6.03;60.92
76594;BME280;65482;50.240;14.302;2024-03-29T05:58:55;98375.19;;;6.13;60.66
76594;BME280;65482;50.240;14.302;2024-03-29T06:01:21;98382.41;;;6.28;60.78
76594;BME280;65482;50.240;14.302;2024-03-29T06:03:48;98379.16;;;6.42;59.87
76594;BME280;65482;50.240;14.302;2024-03-29T06:06:14;98380.97;;;6.50;58.67
76594;BME280;65482;50.240;14.302;2024-03-29T06:08:43;98376.75;;;6.65;59.22
76594;BME280;65482;50.240;14.302;2024-03-29T06:11:09;98376.41;;;6.76;57.85
76594;BME280;65482;50.240;14.302;2024-03-29T06:13:35;98385.75;;;6.95;57.49
76594;BME280;65482;50.240;14.302;2024-03-29T06:16:23;98385.41;;;7.15;57.37
76594;BME280;65482;50.240;14.302;2024-03-29T06:19:07;98387.97;;;7.40;56.86
76594;BME280;65482;50.240;14.302;2024-03-29T06:21:33;98380.22;;;7.54;56.17
76594;BME280;65482;50.240;14.302;2024-03-29T06:24:08;98382.63;;;7.72;55.24
76594;BME280;65482;50.240;14.302;2024-03-29T06:26:34;98388.41;;;7.99;54.94
76594;BME280;65482;50.240;14.302;2024-03-29T06:29:00;98392.50;;;8.41;53.70
76594;BME280;65482;50.240;14.302;2024-03-29T06:31:27;98390.56;;;8.81;52.51
76594;BME280;65482;50.240;14.302;2024-03-29T06:33:53;98400.56;;;9.24;52.53
76594;BME280;65482;50.240;14.302;2024-03-29T06:36:19;98408.97;;;9.57;51.42
76594;BME280;65482;50.240;14.302;2024-03-29T06:38:44;98408.22;;;9.78;49.63
76594;BME280;65482;50.240;14.302;2024-03-29T06:41:10;98417.09;;;10.37;49.32
76594;BME280;65482;50.240;14.302;2024-03-29T06:43:36;98412.38;;;11.18;47.21
76594;BME280;65482;50.240;14.302;2024-03-29T06:46:02;98413.19;;;11.47;46.38
76594;BME280;65482;50.240;14.302;2024-03-29T06:48:29;98425.56;;;11.74;45.40
76594;BME280;65482;50.240;14.302;2024-03-29T06:50:57;98421.03;;;12.03;44.70
76594;BME280;65482;50.240;14.302;2024-03-29T06:53:24;98428.56;;;12.54;42.92
76594;BME280;65482;50.240;14.302;2024-03-29T06:55:49;98430.25;;;13.09;42.35
76594;BME280;65482;50.240;14.302;2024-03-29T06:58:15;98433.28;;;13.86;40.67
76594;BME280;65482;50.240;14.302;2024-03-29T07:00:45;98414.09;;;13.97;39.80
76594;BME280;65482;50.240;14.302;2024-03-29T07:03:10;98397.31;;;14.87;38.46
76594;BME280;65482;50.240;14.302;2024-03-29T07:05:36;98391.91;;;15.25;37.54
76594;BME280;65482;50.240;14.302;2024-03-29T07:08:02;98399.38;;;15.79;36.33
76594;BME280;65482;50.240;14.302;2024-03-29T07:10:27;98405.31;;;16.48;35.03
76594;BME280;65482;50.240;14.302;2024-03-29T07:12:53;98396.66;;;16.95;34.43
76594;BME280;65482;50.240;14.302;2024-03-29T07:15:19;98392.44;;;17.41;33.56
76594;BME280;65482;50.240;14.302;2024-03-29T07:17:44;98398.91;;;18.78;31.36
76594;BME280;65482;50.240;14.302;2024-03-29T07:20:12;98400.94;;;20.17;29.40
76594;BME280;65482;50.240;14.302;2024-03-29T07:22:37;98395.38;;;21.37;27.29
76594;BME280;65482;50.240;14.302;2024-03-29T07:25:03;98394.44;;;22.07;26.38
76594;BME280;65482;50.240;14.302;2024-03-29T07:27:31;98390.28;;;22.41;26.16
76594;BME280;65482;50.240;14.302;2024-03-29T07:29:59;98390.56;;;23.63;24.41
76594;BME280;65482;50.240;14.302;2024-03-29T07:32:25;98378.56;;;24.15;23.10
76594;BME280;65482;50.240;14.302;2024-03-29T07:34:50;98378.97;;;25.70;21.79
76594;BME280;65482;50.240;14.302;2024-03-29T07:37:16;98373.38;;;26.72;20.43
76594;BME280;65482;50.240;14.302;2024-03-29T07:39:43;98381.75;;;27.22;18.95
76594;BME280;65482;50.240;14.302;2024-03-29T07:42:09;98373.00;;;26.78;19.11
76594;BME280;65482;50.240;14.302;2024-03-29T07:44:35;98367.09;;;25.71;19.24
76594;BME280;65482;50.240;14.302;2024-03-29T07:47:00;98350.91;;;23.94;20.82
76594;BME280;65482;50.240;14.302;2024-03-29T07:49:26;98341.97;;;22.98;22.02
76594;BME280;65482;50.240;14.302;2024-03-29T07:51:51;98332.50;;;25.25;20.29
76594;BME280;65482;50.240;14.302;2024-03-29T07:54:17;98321.84;;;25.39;19.85
76594;BME280;65482;50.240;14.302;2024-03-29T07:56:43;98322.47;;;24.67;20.83
76594;BME280;65482;50.240;14.302;2024-03-29T07:59:09;98316.75;;;21.79;23.51
76594;BME280;65482;50.240;14.302;2024-03-29T08:01:34;98318.69;;;19.85;26.06
76594;BME280;65482;50.240;14.302;2024-03-29T08:04:01;98325.97;;;18.78;27.08
76594;BME280;65482;50.240;14.302;2024-03-29T08:06:28;98326.88;;;17.68;28.69
76594;BME280;65482;50.240;14.302;2024-03-29T08:08:53;98339.44;;;17.44;29.77
76594;BME280;65482;50.240;14.302;2024-03-29T08:11:19;98335.63;;;16.81;29.68
76594;BME280;65482;50.240;14.302;2024-03-29T08:13:45;98334.56;;;16.40;30.17
76594;BME280;65482;50.240;14.302;2024-03-29T08:16:10;98344.00;;;15.94;30.82
76594;BME280;65482;50.240;14.302;2024-03-29T08:18:36;98351.09;;;15.82;30.94
76594;BME280;65482;50.240;14.302;2024-03-29T08:21:02;98345.25;;;15.73;31.20
76594;BME280;65482;50.240;14.302;2024-03-29T08:23:28;98353.97;;;16.59;29.70
76594;BME280;65482;50.240;14.302;2024-03-29T08:25:54;98343.50;;;16.88;29.89
76594;BME280;65482;50.240;14.302;2024-03-29T08:28:22;98347.94;;;16.64;29.48
76594;BME280;65482;50.240;14.302;2024-03-29T08:31:04;98348.50;;;17.20;29.34
76594;BME280;65482;50.240;14.302;2024-03-29T08:33:31;98355.53;;;17.61;27.93
76594;BME280;65482;50.240;14.302;2024-03-29T08:35:57;98363.59;;;18.02;27.99
76594;BME280;65482;50.240;14.302;2024-03-29T08:38:23;98365.63;;;18.69;26.63
76594;BME280;65482;50.240;14.302;2024-03-29T08:40:49;98362.44;;;19.01;26.71
76594;BME280;65482;50.240;14.302;2024-03-29T08:43:16;98367.75;;;19.35;26.16
76594;BME280;65482;50.240;14.302;2024-03-29T08:45:44;98358.22;;;19.61;25.56
76594;BME280;65482;50.240;14.302;2024-03-29T08:48:11;98354.97;;;19.98;25.32
76594;BME280;65482;50.240;14.302;2024-03-29T08:50:36;98360.75;;;20.12;25.14
76594;BME280;65482;50.240;14.302;2024-03-29T08:53:03;98349.38;;;20.26;24.56
76594;BME280;65482;50.240;14.302;2024-03-29T08:55:32;98347.31;;;19.84;24.75
76594;BME280;65482;50.240;14.302;2024-03-29T08:57:59;98347.09;;;19.69;25.30
76594;BME280;65482;50.240;14.302;2024-03-29T09:00:25;98353.28;;;19.53;25.66
76594;BME280;65482;50.240;14.302;2024-03-29T09:02:51;98341.13;;;19.23;26.05
76594;BME280;65482;50.240;14.302;2024-03-29T09:05:17;98338.69;;;19.21;25.92
76594;BME280;65482;50.240;14.302;2024-03-29T09:07:43;98337.25;;;19.53;24.94
76594;BME280;65482;50.240;14.302;2024-03-29T09:10:09;98325.97;;;19.12;25.54
76594;BME280;65482;50.240;14.302;2024-03-29T09:12:35;98320.84;;;18.59;26.05
76594;BME280;65482;50.240;14.302;2024-03-29T09:15:00;98322.59;;;19.16;26.13
76594;BME280;65482;50.240;14.302;2024-03-29T09:17:26;98324.13;;;19.12;25.43
76594;BME280;65482;50.240;14.302;2024-03-29T09:19:52;98306.13;;;18.74;25.94
76594;BME280;65482;50.240;14.302;2024-03-29T09:22:18;98305.53;;;19.00;26.73
76594;BME280;65482;50.240;14.302;2024-03-29T09:24:44;98306.78;;;19.15;25.98
76594;BME280;65482;50.240;14.302;2024-03-29T09:27:10;98297.31;;;19.46;25.95
76594;BME280;65482;50.240;14.302;2024-03-29T09:29:36;98297.50;;;19.61;25.59
76594;BME280;65482;50.240;14.302;2024-03-29T09:32:02;98299.00;;;19.52;25.66
76594;BME280;65482;50.240;14.302;2024-03-29T09:34:28;98287.06;;;19.60;25.25
76594;BME280;65482;50.240;14.302;2024-03-29T09:36:54;98291.22;;;19.28;25.13
76594;BME280;65482;50.240;14.302;2024-03-29T09:39:20;98284.44;;;19.43;25.67
76594;BME280;65482;50.240;14.302;2024-03-29T09:41:46;98269.84;;;19.51;24.94
76594;BME280;65482;50.240;14.302;2024-03-29T09:44:12;98260.34;;;19.82;25.11
76594;BME280;65482;50.240;14.302;2024-03-29T09:46:39;98252.03;;;19.83;24.10
76594;BME280;65482;50.240;14.302;2024-03-29T09:49:07;98232.72;;;20.03;24.21
76594;BME280;65482;50.240;14.302;2024-03-29T09:51:33;98230.78;;;19.99;23.84
76594;BME280;65482;50.240;14.302;2024-03-29T09:54:00;98231.38;;;19.79;23.45
76594;BME280;65482;50.240;14.302;2024-03-29T09:56:27;98223.16;;;19.63;22.42
76594;BME280;65482;50.240;14.302;2024-03-29T09:58:52;98219.34;;;20.03;22.53
76594;BME280;65482;50.240;14.302;2024-03-29T10:01:18;98232.59;;;20.53;22.11
76594;BME280;65482;50.240;14.302;2024-03-29T10:03:51;98215.13;;;20.77;20.35
76594;BME280;65482;50.240;14.302;2024-03-29T10:06:19;98215.31;;;21.18;20.43
76594;BME280;65482;50.240;14.302;2024-03-29T10:08:47;98210.97;;;21.70;19.70
76594;BME280;65482;50.240;14.302;2024-03-29T10:11:14;98204.31;;;21.93;19.54
76594;BME280;65482;50.240;14.302;2024-03-29T10:13:45;98207.25;;;21.81;19.67
76594;BME280;65482;50.240;14.302;2024-03-29T10:16:11;98203.50;;;21.88;19.94
76594;BME280;65482;50.240;14.302;2024-03-29T10:18:41;98216.28;;;21.50;19.41
76594;BME280;65482;50.240;14.302;2024-03-29T10:21:09;98207.78;;;21.10;19.47
76594;BME280;65482;50.240;14.302;2024-03-29T10:23:35;98205.13;;;21.15;20.13
76594;BME280;65482;50.240;14.302;2024-03-29T10:26:02;98201.16;;;21.28;19.96
76594;BME280;65482;50.240;14.302;2024-03-29T10:28:33;98196.72;;;20.91;20.18
76594;BME280;65482;50.240;14.302;2024-03-29T10:31:03;98193.53;;;21.04;19.88
76594;BME280;65482;50.240;14.302;2024-03-29T10:33:30;98185.44;;;20.89;19.90
76594;BME280;65482;50.240;14.302;2024-03-29T10:35:58;98182.84;;;21.10;20.32
76594;BME280;65482;50.240;14.302;2024-03-29T10:38:25;98184.41;;;21.00;20.05
76594;BME280;65482;50.240;14.302;2024-03-29T10:40:54;98181.09;;;20.78;19.77
76594;BME280;65482;50.240;14.302;2024-03-29T10:43:20;98169.53;;;20.72;20.08
76594;BME280;65482;50.240;14.302;2024-03-29T10:45:47;98164.63;;;20.59;20.45
76594;BME280;65482;50.240;14.302;2024-03-29T10:48:15;98161.84;;;20.49;20.70
76594;BME280;65482;50.240;14.302;2024-03-29T10:50:42;98165.66;;;20.58;20.54
76594;BME280;65482;50.240;14.302;2024-03-29T10:53:09;98161.28;;;20.84;20.64
76594;BME280;65482;50.240;14.302;2024-03-29T10:55:37;98159.28;;;21.12;20.87
76594;BME280;65482;50.240;14.302;2024-03-29T10:58:05;98155.03;;;21.21;20.21
76594;BME280;65482;50.240;14.302;2024-03-29T11:00:46;98154.16;;;21.05;20.02
76594;BME280;65482;50.240;14.302;2024-03-29T11:03:23;98145.66;;;20.65;19.87
76594;BME280;65482;50.240;14.302;2024-03-29T11:05:55;98146.03;;;20.47;19.59
76594;BME280;65482;50.240;14.302;2024-03-29T11:08:26;98144.56;;;20.29;19.55
76594;BME280;65482;50.240;14.302;2024-03-29T11:10:58;98139.50;;;20.33;20.07
76594;BME280;65482;50.240;14.302;2024-03-29T11:13:49;98141.03;;;20.18;20.11
76594;BME280;65482;50.240;14.302;2024-03-29T11:16:19;98139.69;;;20.21;20.60
76594;BME280;65482;50.240;14.302;2024-03-29T11:18:46;98140.16;;;20.08;20.20
76594;BME280;65482;50.240;14.302;2024-03-29T11:21:16;98141.84;;;19.86;19.91
76594;BME280;65482;50.240;14.302;2024-03-29T11:23:53;98135.84;;;19.74;19.99
76594;BME280;65482;50.240;14.302;2024-03-29T11:26:19;98143.41;;;19.82;20.05
76594;BME280;65482;50.240;14.302;2024-03-29T11:28:49;98146.81;;;20.05;20.36
76594;BME280;65482;50.240;14.302;2024-03-29T11:31:16;98152.34;;;20.31;20.23
76594;BME280;65482;50.240;14.302;2024-03-29T11:36:13;98152.88;;;20.65;20.37
76594;BME280;65482;50.240;14.302;2024-03-29T11:38:40;98142.44;;;20.69;20.78
76594;BME280;65482;50.240;14.302;2024-03-29T11:41:09;98151.31;;;20.69;20.58
76594;BME280;65482;50.240;14.302;2024-03-29T11:43:36;98147.06;;;20.78;20.41
76594;BME280;65482;50.240;14.302;2024-03-29T11:46:08;98151.06;;;20.81;20.00
76594;BME280;65482;50.240;14.302;2024-03-29T11:48:35;98160.25;;;20.48;20.57
76594;BME280;65482;50.240;14.302;2024-03-29T11:51:02;98149.72;;;20.36;20.85
76594;BME280;65482;50.240;14.302;2024-03-29T11:53:29;98144.69;;;20.44;20.72
76594;BME280;65482;50.240;14.302;2024-03-29T11:55:59;98157.38;;;20.22;20.86
76594;BME280;65482;50.240;14.302;2024-03-29T11:58:26;98155.00;;;20.25;20.92
76594;BME280;65482;50.240;14.302;2024-03-29T12:00:54;98153.81;;;20.11;21.60
76594;BME280;65482;50.240;14.302;2024-03-29T12:03:21;98151.19;;;20.16;21.41
76594;BME280;65482;50.240;14.302;2024-03-29T12:05:49;98165.28;;;20.06;21.67
76594;BME280;65482;50.240;14.302;2024-03-29T12:08:22;98168.28;;;20.10;22.36
76594;BME280;65482;50.240;14.302;2024-03-29T12:10:48;98183.22;;;20.06;22.80
76594;BME280;65482;50.240;14.302;2024-03-29T12:13:16;98188.75;;;19.94;22.97
76594;BME280;65482;50.240;14.302;2024-03-29T12:15:43;98194.59;;;19.69;22.41
76594;BME280;65482;50.240;14.302;2024-03-29T12:18:09;98193.47;;;19.38;23.13
76594;BME280;65482;50.240;14.302;2024-03-29T12:20:35;98191.28;;;19.35;23.27
76594;BME280;65482;50.240;14.302;2024-03-29T12:23:03;98190.06;;;19.20;23.43
76594;BME280;65482;50.240;14.302;2024-03-29T12:25:30;98191.19;;;19.24;23.80
76594;BME280;65482;50.240;14.302;2024-03-29T12:27:57;98187.81;;;19.34;23.86
76594;BME280;65482;50.240;14.302;2024-03-29T12:30:24;98177.03;;;19.51;24.15
76594;BME280;65482;50.240;14.302;2024-03-29T12:33:11;98175.63;;;19.71;24.40
76594;BME280;65482;50.240;14.302;2024-03-29T12:35:37;98178.25;;;19.88;24.17
76594;BME280;65482;50.240;14.302;2024-03-29T12:38:04;98166.91;;;20.08;24.22
76594;BME280;65482;50.240;14.302;2024-03-29T12:40:31;98152.94;;;20.38;24.07
76594;BME280;65482;50.240;14.302;2024-03-29T12:43:06;98143.16;;;20.54;24.20
76594;BME280;65482;50.240;14.302;2024-03-29T12:45:38;98144.81;;;20.60;23.10
76594;BME280;65482;50.240;14.302;2024-03-29T12:48:12;98134.94;;;20.65;23.52
76594;BME280;65482;50.240;14.302;2024-03-29T12:50:40;98143.28;;;20.69;23.00
76594;BME280;65482;50.240;14.302;2024-03-29T12:53:08;98150.81;;;20.77;23.15
76594;BME280;65482;50.240;14.302;2024-03-29T12:55:45;98149.53;;;20.85;22.99
76594;BME280;65482;50.240;14.302;2024-03-29T12:58:12;98145.25;;;20.89;22.93